sensor_id;sensor_type;location;lat;lon;timestamp;pressure;altitude;pressure_sealevel;temperature;humidity
68226;BME280;55045;49.410;11.030;2022-10-04T00:02:27;98737.13;;;4.50;27.98
68226;BME280;55045;49.410;11.030;2022-10-04T00:05:33;98726.84;;;4.51;24.59
68226;BME280;55045;49.410;11.030;2022-10-04T00:08:41;98723.19;;;4.66;34.53
68226;BME280;55045;49.410;11.030;2022-10-04T00:11:47;98722.50;;;4.55;38.61
68226;BME280;55045;49.410;11.030;2022-10-04T00:14:54;98738.09;;;4.43;33.23
68226;BME280;55045;49.410;11.030;2022-10-04T00:18:04;98731.16;;;4.48;31.36
68226;BME280;55045;49.410;11.030;2022-10-04T00:21:08;98724.53;;;4.88;20.38
68226;BME280;55045;49.410;11.030;2022-10-04T00:24:19;98717.41;;;4.52;17.23
68226;BME280;55045;49.410;11.030;2022-10-04T00:27:24;98740.78;;;4.32;24.43
68226;BME280;55045;49.410;11.030;2022-10-04T00:30:36;98727.00;;;4.38;31.66
68226;BME280;55045;49.410;11.030;2022-10-04T00:33:41;98740.81;;;4.29;22.92
68226;BME280;55045;49.410;11.030;2022-10-04T00:36:48;98727.97;;;4.30;13.54
68226;BME280;55045;49.410;11.030;2022-10-04T00:39:59;98707.53;;;4.81;8.80
68226;BME280;55045;49.410;11.030;2022-10-04T00:43:04;98716.91;;;4.25;14.06
68226;BME280;55045;49.410;11.030;2022-10-04T00:46:12;98705.97;;;4.11;3.92
68226;BME280;55045;49.410;11.030;2022-10-04T00:49:20;98691.06;;;4.38;0.00
68226;BME280;55045;49.410;11.030;2022-10-04T00:52:28;98706.91;;;4.04;2.44
68226;BME280;55045;49.410;11.030;2022-10-04T00:55:34;98703.56;;;3.99;0.00
68226;BME280;55045;49.410;11.030;2022-10-04T00:58:59;98693.03;;;4.20;0.00
68226;BME280;55045;49.410;11.030;2022-10-04T01:02:14;98705.53;;;4.43;0.59
68226;BME280;55045;49.410;11.030;2022-10-04T01:05:22;98707.72;;;4.08;3.20
68226;BME280;55045;49.410;11.030;2022-10-04T01:08:29;98710.41;;;4.00;1.82
68226;BME280;55045;49.410;11.030;2022-10-04T01:11:36;98708.66;;;4.02;0.54
68226;BME280;55045;49.410;11.030;2022-10-04T01:14:48;98695.88;;;3.97;5.38
68226;BME280;55045;49.410;11.030;2022-10-04T01:18:07;98695.22;;;3.82;4.57
68226;BME280;55045;49.410;11.030;2022-10-04T01:21:23;98680.84;;;4.34;0.41
68226;BME280;55045;49.410;11.030;2022-10-04T01:24:34;98703.91;;;3.71;7.85
68226;BME280;55045;49.410;11.030;2022-10-04T01:27:40;98691.22;;;3.59;2.88
68226;BME280;55045;49.410;11.030;2022-10-04T01:30:45;98706.59;;;3.61;0.00
68226;BME280;55045;49.410;11.030;2022-10-04T01:33:48;98707.34;;;3.70;0.00
68226;BME280;55045;49.410;11.030;2022-10-04T01:36:57;98703.91;;;3.70;0.00
68226;BME280;55045;49.410;11.030;2022-10-04T01:40:03;98692.66;;;3.82;4.50
68226;BME280;55045;49.410;11.030;2022-10-04T01:43:09;98706.72;;;3.49;9.92
68226;BME280;55045;49.410;11.030;2022-10-04T01:46:19;98701.66;;;3.42;5.70
68226;BME280;55045;49.410;11.030;2022-10-04T01:49:27;98694.88;;;3.38;2.30
68226;BME280;55045;49.410;11.030;2022-10-04T01:52:34;98691.91;;;3.72;0.00
68226;BME280;55045;49.410;11.030;2022-10-04T01:55:43;98688.19;;;3.96;0.00
68226;BME280;55045;49.410;11.030;2022-10-04T01:58:50;98688.03;;;4.10;0.00
68226;BME280;55045;49.410;11.030;2022-10-04T02:01:56;98692.69;;;3.77;0.00
68226;BME280;55045;49.410;11.030;2022-10-04T02:05:05;98692.34;;;3.32;3.51
68226;BME280;55045;49.410;11.030;2022-10-04T02:08:13;98691.25;;;3.58;1.88
68226;BME280;55045;49.410;11.030;2022-10-04T02:11:20;98679.38;;;3.47;1.53
68226;BME280;55045;49.410;11.030;2022-10-04T02:14:25;98689.75;;;3.34;1.50
68226;BME280;55045;49.410;11.030;2022-10-04T02:17:32;98677.06;;;3.97;0.00
68226;BME280;55045;49.410;11.030;2022-10-04T02:20:38;98681.97;;;3.44;0.78
68226;BME280;55045;49.410;11.030;2022-10-04T02:23:42;98662.50;;;3.25;0.00
68226;BME280;55045;49.410;11.030;2022-10-04T02:27:08;98674.34;;;3.37;0.00
68226;BME280;55045;49.410;11.030;2022-10-04T02:30:12;98677.13;;;3.18;0.00
68226;BME280;55045;49.410;11.030;2022-10-04T02:33:15;98679.91;;;3.75;0.00
68226;BME280;55045;49.410;11.030;2022-10-04T02:36:22;98671.22;;;3.06;0.00
68226;BME280;55045;49.410;11.030;2022-10-04T02:39:29;98680.66;;;3.02;0.00
68226;BME280;55045;49.410;11.030;2022-10-04T02:42:41;98668.75;;;2.98;0.00
68226;BME280;55045;49.410;11.030;2022-10-04T02:45:49;98666.06;;;3.12;0.00
68226;BME280;55045;49.410;11.030;2022-10-04T02:48:56;98661.88;;;3.03;0.00
68226;BME280;55045;49.410;11.030;2022-10-04T02:52:02;98653.59;;;2.77;0.00
68226;BME280;55045;49.410;11.030;2022-10-04T02:55:12;98646.72;;;2.76;0.00
68226;BME280;55045;49.410;11.030;2022-10-04T02:58:22;98641.53;;;2.85;0.00
68226;BME280;55045;49.410;11.030;2022-10-04T03:01:27;98641.59;;;2.79;0.00
68226;BME280;55045;49.410;11.030;2022-10-04T03:04:33;98645.84;;;2.81;0.00
68226;BME280;55045;49.410;11.030;2022-10-04T03:07:41;98652.72;;;2.76;0.00
68226;BME280;55045;49.410;11.030;2022-10-04T03:10:45;98656.13;;;2.75;0.00
68226;BME280;55045;49.410;11.030;2022-10-04T03:13:51;98662.75;;;3.01;0.00
68226;BME280;55045;49.410;11.030;2022-10-04T03:16:58;98670.06;;;3.39;0.00
68226;BME280;55045;49.410;11.030;2022-10-04T03:20:03;98664.31;;;3.14;0.00
68226;BME280;55045;49.410;11.030;2022-10-04T03:23:08;98670.25;;;3.21;0.00
68226;BME280;55045;49.410;11.030;2022-10-04T03:26:18;98670.56;;;2.84;0.00
68226;BME280;55045;49.410;11.030;2022-10-04T03:29:30;98662.97;;;2.78;6.67
68226;BME280;55045;49.410;11.030;2022-10-04T03:35:02;98627.22;;;2.61;7.38
68226;BME280;55045;49.410;11.030;2022-10-04T03:38:10;98654.53;;;2.67;7.39
68226;BME280;55045;49.410;11.030;2022-10-04T03:41:14;98669.88;;;2.67;8.03
68226;BME280;55045;49.410;11.030;2022-10-04T03:44:20;98653.19;;;3.16;8.38
68226;BME280;55045;49.410;11.030;2022-10-04T03:47:26;98648.81;;;3.29;8.98
68226;BME280;55045;49.410;11.030;2022-10-04T03:50:38;98636.56;;;2.70;9.47
68226;BME280;55045;49.410;11.030;2022-10-04T03:53:44;98625.50;;;2.66;9.67
68226;BME280;55045;49.410;11.030;2022-10-04T03:56:50;98631.38;;;2.74;9.71
68226;BME280;55045;49.410;11.030;2022-10-04T03:59:55;98624.66;;;2.63;12.18
68226;BME280;55045;49.410;11.030;2022-10-04T04:03:00;98611.78;;;2.70;15.20
68226;BME280;55045;49.410;11.030;2022-10-04T04:06:14;98628.03;;;2.68;16.64
68226;BME280;55045;49.410;11.030;2022-10-04T04:09:22;98639.94;;;2.72;16.90
68226;BME280;55045;49.410;11.030;2022-10-04T04:12:35;98635.97;;;3.31;17.63
68226;BME280;55045;49.410;11.030;2022-10-04T04:15:40;98620.75;;;3.17;18.01
68226;BME280;55045;49.410;11.030;2022-10-04T04:18:47;98638.06;;;2.92;18.17
68226;BME280;55045;49.410;11.030;2022-10-04T04:21:54;98635.38;;;3.03;18.23
68226;BME280;55045;49.410;11.030;2022-10-04T04:24:59;98640.69;;;2.87;18.36
68226;BME280;55045;49.410;11.030;2022-10-04T04:28:10;98637.13;;;3.01;18.46
68226;BME280;55045;49.410;11.030;2022-10-04T04:31:18;98614.97;;;2.95;18.27
68226;BME280;55045;49.410;11.030;2022-10-04T04:34:24;98615.78;;;3.00;18.37
68226;BME280;55045;49.410;11.030;2022-10-04T04:37:33;98620.88;;;3.03;18.25
68226;BME280;55045;49.410;11.030;2022-10-04T04:40:37;98622.72;;;2.89;18.49
68226;BME280;55045;49.410;11.030;2022-10-04T04:43:42;98633.75;;;2.96;18.52
68226;BME280;55045;49.410;11.030;2022-10-04T04:46:46;98624.25;;;3.08;18.42
68226;BME280;55045;49.410;11.030;2022-10-04T04:49:50;98613.19;;;3.02;18.23
68226;BME280;55045;49.410;11.030;2022-10-04T04:52:59;98618.03;;;3.31;18.17
68226;BME280;55045;49.410;11.030;2022-10-04T04:56:05;98628.28;;;3.31;18.43
68226;BME280;55045;49.410;11.030;2022-10-04T04:59:12;98639.53;;;3.17;17.89
68226;BME280;55045;49.410;11.030;2022-10-04T05:02:31;98653.19;;;3.20;18.35
68226;BME280;55045;49.410;11.030;2022-10-04T05:05:36;98656.50;;;3.26;18.48
68226;BME280;55045;49.410;11.030;2022-10-04T05:08:48;98657.47;;;3.19;18.36
68226;BME280;55045;49.410;11.030;2022-10-04T05:11:53;98646.25;;;3.28;18.47
68226;BME280;55045;49.410;11.030;2022-10-04T05:14:59;98637.59;;;3.36;18.43
68226;BME280;55045;49.410;11.030;2022-10-04T05:18:13;98647.09;;;3.27;18.58
68226;BME280;55045;49.410;11.030;2022-10-04T05:21:22;98635.94;;;3.34;18.67
68226;BME280;55045;49.410;11.030;2022-10-04T05:24:55;98634.13;;;3.42;18.85
68226;BME280;55045;49.410;11.030;2022-10-04T05:28:00;98640.13;;;3.41;18.40
68226;BME280;55045;49.410;11.030;2022-10-04T05:31:24;98637.25;;;3.65;18.84
68226;BME280;55045;49.410;11.030;2022-10-04T05:34:42;98633.28;;;3.41;19.00
68226;BME280;55045;49.410;11.030;2022-10-04T05:37:56;98628.94;;;3.48;19.38
68226;BME280;55045;49.410;11.030;2022-10-04T05:41:12;98637.25;;;3.68;19.18
68226;BME280;55045;49.410;11.030;2022-10-04T05:44:23;98631.09;;;3.80;19.54
68226;BME280;55045;49.410;11.030;2022-10-04T05:47:29;98632.88;;;3.73;19.39
68226;BME280;55045;49.410;11.030;2022-10-04T05:50:34;98619.31;;;3.65;19.10
68226;BME280;55045;49.410;11.030;2022-10-04T05:53:37;98631.91;;;3.84;18.88
68226;BME280;55045;49.410;11.030;2022-10-04T06:00:13;98627.69;;;3.80;18.85
68226;BME280;55045;49.410;11.030;2022-10-04T06:03:29;98622.28;;;3.99;18.72
68226;BME280;55045;49.410;11.030;2022-10-04T06:06:45;98615.66;;;3.83;18.14
68226;BME280;55045;49.410;11.030;2022-10-04T06:10:04;98617.31;;;3.89;18.29
68226;BME280;55045;49.410;11.030;2022-10-04T06:13:24;98629.09;;;4.02;18.41
68226;BME280;55045;49.410;11.030;2022-10-04T06:16:44;98601.91;;;3.87;17.93
68226;BME280;55045;49.410;11.030;2022-10-04T06:23:24;98631.53;;;4.11;17.30
68226;BME280;55045;49.410;11.030;2022-10-04T06:26:58;98647.53;;;4.28;15.76
68226;BME280;55045;49.410;11.030;2022-10-04T06:30:16;98654.38;;;4.31;14.32
68226;BME280;55045;49.410;11.030;2022-10-04T06:33:32;98646.72;;;4.26;13.24
68226;BME280;55045;49.410;11.030;2022-10-04T06:37:03;98652.53;;;4.38;12.83
68226;BME280;55045;49.410;11.030;2022-10-04T06:43:48;98661.69;;;4.55;10.13
68226;BME280;55045;49.410;11.030;2022-10-04T06:47:11;98638.03;;;4.35;18.58
68226;BME280;55045;49.410;11.030;2022-10-04T06:50:29;98662.97;;;4.82;22.49
68226;BME280;55045;49.410;11.030;2022-10-04T06:53:47;98665.34;;;4.95;33.64
68226;BME280;55045;49.410;11.030;2022-10-04T06:57:08;98665.41;;;4.91;41.21
68226;BME280;55045;49.410;11.030;2022-10-04T07:00:18;98628.00;;;4.74;44.83
68226;BME280;55045;49.410;11.030;2022-10-04T07:03:29;98662.22;;;5.25;60.85
68226;BME280;55045;49.410;11.030;2022-10-04T07:06:38;98658.75;;;5.28;71.55
68226;BME280;55045;49.410;11.030;2022-10-04T07:09:43;98647.00;;;5.59;72.90
68226;BME280;55045;49.410;11.030;2022-10-04T07:12:51;98654.06;;;5.48;91.79
68226;BME280;55045;49.410;11.030;2022-10-04T07:16:00;98654.69;;;5.61;100.00
68226;BME280;55045;49.410;11.030;2022-10-04T07:19:22;98654.56;;;5.67;100.00
68226;BME280;55045;49.410;11.030;2022-10-04T07:22:31;98655.53;;;5.63;100.00
68226;BME280;55045;49.410;11.030;2022-10-04T07:25:42;98651.03;;;5.71;100.00
68226;BME280;55045;49.410;11.030;2022-10-04T07:28:48;98652.56;;;5.81;100.00
68226;BME280;55045;49.410;11.030;2022-10-04T07:32:13;98656.81;;;5.84;100.00
68226;BME280;55045;49.410;11.030;2022-10-04T07:35:27;98673.63;;;6.01;100.00
68226;BME280;55045;49.410;11.030;2022-10-04T07:38:44;98675.97;;;6.12;100.00
68226;BME280;55045;49.410;11.030;2022-10-04T07:41:51;98654.28;;;6.24;100.00
68226;BME280;55045;49.410;11.030;2022-10-04T07:45:04;98667.78;;;6.33;100.00
68226;BME280;55045;49.410;11.030;2022-10-04T07:48:14;98662.19;;;6.52;100.00
68226;BME280;55045;49.410;11.030;2022-10-04T07:51:24;98676.72;;;6.56;100.00
68226;BME280;55045;49.410;11.030;2022-10-04T07:54:36;98673.69;;;6.74;100.00
68226;BME280;55045;49.410;11.030;2022-10-04T07:57:49;98672.78;;;6.77;100.00
68226;BME280;55045;49.410;11.030;2022-10-04T08:00:59;98682.25;;;6.76;100.00
68226;BME280;55045;49.410;11.030;2022-10-04T08:04:25;98678.16;;;6.68;100.00
68226;BME280;55045;49.410;11.030;2022-10-04T08:07:42;98675.34;;;7.12;100.00
68226;BME280;55045;49.410;11.030;2022-10-04T08:10:55;98678.91;;;7.41;100.00
68226;BME280;55045;49.410;11.030;2022-10-04T08:14:13;98684.09;;;7.07;100.00
68226;BME280;55045;49.410;11.030;2022-10-04T08:17:39;98678.84;;;7.42;100.00
68226;BME280;55045;49.410;11.030;2022-10-04T08:20:47;98669.28;;;7.78;100.00
68226;BME280;55045;49.410;11.030;2022-10-04T08:24:06;98677.41;;;7.94;100.00
68226;BME280;55045;49.410;11.030;2022-10-04T08:27:28;98681.47;;;8.03;100.00
68226;BME280;55045;49.410;11.030;2022-10-04T08:30:50;98693.31;;;8.10;100.00
68226;BME280;55045;49.410;11.030;2022-10-04T08:34:15;98677.19;;;8.31;100.00
68226;BME280;55045;49.410;11.030;2022-10-04T08:37:27;98671.16;;;8.31;100.00
68226;BME280;55045;49.410;11.030;2022-10-04T08:45:07;98692.13;;;8.51;100.00
68226;BME280;55045;49.410;11.030;2022-10-04T08:56:14;98696.28;;;9.10;100.00
68226;BME280;55045;49.410;11.030;2022-10-04T08:59:53;98693.59;;;9.38;100.00
68226;BME280;55045;49.410;11.030;2022-10-04T09:03:27;98691.19;;;9.33;100.00
68226;BME280;55045;49.410;11.030;2022-10-04T09:06:43;98695.38;;;9.62;100.00
68226;BME280;55045;49.410;11.030;2022-10-04T09:10:29;98712.25;;;9.47;100.00
68226;BME280;55045;49.410;11.030;2022-10-04T09:13:44;98713.03;;;9.49;100.00
68226;BME280;55045;49.410;11.030;2022-10-04T09:16:55;98708.41;;;9.84;100.00
68226;BME280;55045;49.410;11.030;2022-10-04T09:20:17;98698.50;;;9.95;100.00
68226;BME280;55045;49.410;11.030;2022-10-04T09:27:29;98700.28;;;10.17;100.00
68226;BME280;55045;49.410;11.030;2022-10-04T09:38:55;98688.41;;;10.78;100.00
68226;BME280;55045;49.410;11.030;2022-10-04T09:42:52;98684.50;;;10.90;100.00
68226;BME280;55045;49.410;11.030;2022-10-04T09:46:17;98683.84;;;10.63;100.00
68226;BME280;55045;49.410;11.030;2022-10-04T09:49:33;98681.34;;;10.82;100.00
68226;BME280;55045;49.410;11.030;2022-10-04T09:52:47;98670.91;;;11.05;100.00
68226;BME280;55045;49.410;11.030;2022-10-04T09:56:33;98684.38;;;11.13;100.00
68226;BME280;55045;49.410;11.030;2022-10-04T10:00:05;98675.31;;;11.44;100.00
68226;BME280;55045;49.410;11.030;2022-10-04T10:06:57;98689.44;;;11.77;100.00
68226;BME280;55045;49.410;11.030;2022-10-04T10:10:16;98685.66;;;12.24;100.00
68226;BME280;55045;49.410;11.030;2022-10-04T10:14:15;98677.91;;;12.60;100.00
68226;BME280;55045;49.410;11.030;2022-10-04T10:17:30;98664.34;;;12.16;100.00
68226;BME280;55045;49.410;11.030;2022-10-04T10:20:58;98690.31;;;12.17;100.00
68226;BME280;55045;49.410;11.030;2022-10-04T10:28:10;98703.50;;;12.31;100.00
68226;BME280;55045;49.410;11.030;2022-10-04T10:31:29;98694.88;;;12.50;100.00
68226;BME280;55045;49.410;11.030;2022-10-04T10:34:49;98692.25;;;13.22;100.00
68226;BME280;55045;49.410;11.030;2022-10-04T10:38:19;98679.47;;;12.81;100.00
68226;BME280;55045;49.410;11.030;2022-10-04T10:41:47;98689.59;;;12.87;100.00
68226;BME280;55045;49.410;11.030;2022-10-04T10:45:22;98668.59;;;12.73;100.00
68226;BME280;55045;49.410;11.030;2022-10-04T10:48:38;98679.25;;;13.22;100.00
68226;BME280;55045;49.410;11.030;2022-10-04T11:03:38;98709.25;;;13.46;100.00
68226;BME280;55045;49.410;11.030;2022-10-04T11:07:29;98702.63;;;12.87;100.00
68226;BME280;55045;49.410;11.030;2022-10-04T11:11:07;98686.72;;;13.45;100.00
68226;BME280;55045;49.410;11.030;2022-10-04T11:18:19;98696.69;;;13.88;100.00
68226;BME280;55045;49.410;11.030;2022-10-04T11:21:45;98628.75;;;13.24;100.00
68226;BME280;55045;49.410;11.030;2022-10-04T11:28:36;98670.53;;;13.89;100.00
68226;BME280;55045;49.410;11.030;2022-10-04T11:32:15;98662.34;;;13.64;100.00
68226;BME280;55045;49.410;11.030;2022-10-04T11:35:37;98656.66;;;13.73;100.00
68226;BME280;55045;49.410;11.030;2022-10-04T11:38:59;98645.03;;;13.45;100.00
68226;BME280;55045;49.410;11.030;2022-10-04T11:42:14;98653.91;;;13.59;100.00
68226;BME280;55045;49.410;11.030;2022-10-04T11:45:33;98648.25;;;13.83;100.00
68226;BME280;55045;49.410;11.030;2022-10-04T11:48:42;98645.47;;;13.87;100.00
68226;BME280;55045;49.410;11.030;2022-10-04T11:52:14;98647.41;;;13.83;100.00
68226;BME280;55045;49.410;11.030;2022-10-04T11:55:48;98640.97;;;14.06;100.00
68226;BME280;55045;49.410;11.030;2022-10-04T11:59:10;98640.91;;;14.23;100.00
68226;BME280;55045;49.410;11.030;2022-10-04T12:02:45;98645.44;;;14.35;100.00
68226;BME280;55045;49.410;11.030;2022-10-04T12:05:57;98648.97;;;14.82;100.00
68226;BME280;55045;49.410;11.030;2022-10-04T12:09:15;98645.13;;;14.73;100.00
68226;BME280;55045;49.410;11.030;2022-10-04T12:12:43;98650.84;;;14.48;100.00
68226;BME280;55045;49.410;11.030;2022-10-04T12:16:03;98650.41;;;14.24;100.00
68226;BME280;55045;49.410;11.030;2022-10-04T12:27:02;98634.59;;;14.11;100.00
68226;BME280;55045;49.410;11.030;2022-10-04T12:30:24;98630.06;;;14.62;100.00
68226;BME280;55045;49.410;11.030;2022-10-04T12:33:34;98628.28;;;14.63;100.00
68226;BME280;55045;49.410;11.030;2022-10-04T12:40:25;98627.97;;;14.53;100.00
68226;BME280;55045;49.410;11.030;2022-10-04T12:43:34;98623.16;;;14.61;100.00
68226;BME280;55045;49.410;11.030;2022-10-04T12:46:52;98616.69;;;14.53;100.00
68226;BME280;55045;49.410;11.030;2022-10-04T12:50:04;98617.66;;;14.96;100.00
68226;BME280;55045;49.410;11.030;2022-10-04T12:53:22;98635.53;;;15.18;100.00
68226;BME280;55045;49.410;11.030;2022-10-04T12:56:44;98623.13;;;15.07;100.00
68226;BME280;55045;49.410;11.030;2022-10-04T12:59:58;98628.38;;;14.46;100.00
68226;BME280;55045;49.410;11.030;2022-10-04T13:03:30;98620.56;;;14.46;100.00
68226;BME280;55045;49.410;11.030;2022-10-04T13:06:53;98621.94;;;14.67;100.00
68226;BME280;55045;49.410;11.030;2022-10-04T13:10:13;98623.84;;;14.79;100.00
68226;BME280;55045;49.410;11.030;2022-10-04T13:13:43;98594.97;;;15.12;100.00
68226;BME280;55045;49.410;11.030;2022-10-04T13:16:55;98619.66;;;15.07;100.00
68226;BME280;55045;49.410;11.030;2022-10-04T13:20:36;98621.53;;;15.05;100.00
68226;BME280;55045;49.410;11.030;2022-10-04T13:23:53;98624.22;;;14.73;100.00
68226;BME280;55045;49.410;11.030;2022-10-04T13:27:02;98626.94;;;14.56;100.00
68226;BME280;55045;49.410;11.030;2022-10-04T13:30:17;98616.31;;;15.05;100.00
68226;BME280;55045;49.410;11.030;2022-10-04T13:33:29;98623.09;;;14.93;100.00
68226;BME280;55045;49.410;11.030;2022-10-04T13:36:49;98612.03;;;14.88;100.00
68226;BME280;55045;49.410;11.030;2022-10-04T13:40:27;98608.63;;;15.02;100.00
68226;BME280;55045;49.410;11.030;2022-10-04T13:47:22;98613.78;;;15.03;100.00
68226;BME280;55045;49.410;11.030;2022-10-04T13:50:51;98617.88;;;15.07;100.00
68226;BME280;55045;49.410;11.030;2022-10-04T13:54:11;98607.13;;;14.97;100.00
68226;BME280;55045;49.410;11.030;2022-10-04T13:57:41;98628.31;;;14.93;100.00
68226;BME280;55045;49.410;11.030;2022-10-04T14:01:00;98619.88;;;14.88;100.00
68226;BME280;55045;49.410;11.030;2022-10-04T14:04:21;98616.94;;;14.94;100.00
68226;BME280;55045;49.410;11.030;2022-10-04T14:07:40;98621.75;;;14.86;100.00
68226;BME280;55045;49.410;11.030;2022-10-04T14:11:06;98620.94;;;14.99;100.00
68226;BME280;55045;49.410;11.030;2022-10-04T14:29:34;98610.03;;;14.93;100.00
68226;BME280;55045;49.410;11.030;2022-10-04T14:33:12;98606.19;;;14.68;100.00
68226;BME280;55045;49.410;11.030;2022-10-04T14:36:46;98611.78;;;14.62;100.00
68226;BME280;55045;49.410;11.030;2022-10-04T14:43:56;98615.78;;;14.84;100.00
68226;BME280;55045;49.410;11.030;2022-10-04T14:47:18;98606.28;;;14.67;100.00
68226;BME280;55045;49.410;11.030;2022-10-04T14:50:29;98592.72;;;14.60;100.00
68226;BME280;55045;49.410;11.030;2022-10-04T14:53:38;98613.09;;;14.69;100.00
68226;BME280;55045;49.410;11.030;2022-10-04T14:56:59;98604.38;;;14.55;100.00
68226;BME280;55045;49.410;11.030;2022-10-04T15:00:16;98591.75;;;14.63;100.00
68226;BME280;55045;49.410;11.030;2022-10-04T15:03:30;98601.06;;;14.67;100.00
68226;BME280;55045;49.410;11.030;2022-10-04T15:06:37;98605.66;;;14.78;100.00
68226;BME280;55045;49.410;11.030;2022-10-04T15:09:54;98598.13;;;14.73;100.00
68226;BME280;55045;49.410;11.030;2022-10-04T15:13:01;98594.38;;;14.77;100.00
68226;BME280;55045;49.410;11.030;2022-10-04T15:16:17;98579.94;;;14.40;100.00
68226;BME280;55045;49.410;11.030;2022-10-04T15:19:28;98588.03;;;14.35;100.00
68226;BME280;55045;49.410;11.030;2022-10-04T15:22:39;98574.06;;;14.36;100.00
68226;BME280;55045;49.410;11.030;2022-10-04T15:25:45;98581.13;;;14.50;100.00
68226;BME280;55045;49.410;11.030;2022-10-04T15:29:02;98577.28;;;14.41;100.00
68226;BME280;55045;49.410;11.030;2022-10-04T15:35:17;98572.56;;;14.48;100.00
68226;BME280;55045;49.410;11.030;2022-10-04T15:38:23;98570.19;;;14.44;100.00
68226;BME280;55045;49.410;11.030;2022-10-04T15:41:36;98548.28;;;14.00;100.00
68226;BME280;55045;49.410;11.030;2022-10-04T15:48:30;98555.97;;;14.33;100.00
68226;BME280;55045;49.410;11.030;2022-10-04T15:51:47;98555.25;;;14.00;100.00
68226;BME280;55045;49.410;11.030;2022-10-04T15:55:20;98563.63;;;13.89;100.00
68226;BME280;55045;49.410;11.030;2022-10-04T16:05:27;98554.13;;;13.88;100.00
68226;BME280;55045;49.410;11.030;2022-10-04T16:08:50;98552.53;;;13.86;100.00
68226;BME280;55045;49.410;11.030;2022-10-04T16:12:14;98542.09;;;13.54;100.00
68226;BME280;55045;49.410;11.030;2022-10-04T16:15:30;98541.47;;;13.33;100.00
68226;BME280;55045;49.410;11.030;2022-10-04T16:18:42;98561.91;;;13.41;100.00
68226;BME280;55045;49.410;11.030;2022-10-04T16:21:53;98563.06;;;13.35;100.00
68226;BME280;55045;49.410;11.030;2022-10-04T16:24:59;98548.88;;;12.90;100.00
68226;BME280;55045;49.410;11.030;2022-10-04T16:28:46;98558.66;;;13.20;100.00
68226;BME280;55045;49.410;11.030;2022-10-04T16:31:54;98558.72;;;12.66;100.00
68226;BME280;55045;49.410;11.030;2022-10-04T16:35:06;98562.13;;;12.68;100.00
68226;BME280;55045;49.410;11.030;2022-10-04T16:38:21;98565.84;;;12.63;100.00
68226;BME280;55045;49.410;11.030;2022-10-04T16:41:33;98561.19;;;12.52;100.00
68226;BME280;55045;49.410;11.030;2022-10-04T16:44:49;98557.47;;;12.22;100.00
68226;BME280;55045;49.410;11.030;2022-10-04T16:47:57;98556.56;;;12.40;100.00
68226;BME280;55045;49.410;11.030;2022-10-04T16:51:27;98553.72;;;11.91;100.00
68226;BME280;55045;49.410;11.030;2022-10-04T16:54:54;98560.94;;;11.85;100.00
68226;BME280;55045;49.410;11.030;2022-10-04T17:02:22;98573.41;;;11.18;100.00
68226;BME280;55045;49.410;11.030;2022-10-04T17:05:43;98566.56;;;10.97;100.00
68226;BME280;55045;49.410;11.030;2022-10-04T17:09:00;98566.28;;;10.83;100.00
68226;BME280;55045;49.410;11.030;2022-10-04T17:12:16;98545.38;;;10.45;100.00
68226;BME280;55045;49.410;11.030;2022-10-04T17:15:24;98546.88;;;10.51;100.00
68226;BME280;55045;49.410;11.030;2022-10-04T17:18:43;98570.44;;;10.66;100.00
68226;BME280;55045;49.410;11.030;2022-10-04T17:21:58;98563.53;;;10.45;100.00
68226;BME280;55045;49.410;11.030;2022-10-04T17:25:17;98561.69;;;10.27;100.00
68226;BME280;55045;49.410;11.030;2022-10-04T17:28:27;98570.91;;;10.34;100.00
68226;BME280;55045;49.410;11.030;2022-10-04T17:31:35;98579.81;;;10.27;100.00
68226;BME280;55045;49.410;11.030;2022-10-04T17:34:51;98591.00;;;10.05;100.00
68226;BME280;55045;49.410;11.030;2022-10-04T17:38:02;98596.88;;;9.87;100.00
68226;BME280;55045;49.410;11.030;2022-10-04T17:41:16;98590.91;;;9.85;100.00
68226;BME280;55045;49.410;11.030;2022-10-04T17:44:42;98596.09;;;9.85;100.00
68226;BME280;55045;49.410;11.030;2022-10-04T17:47:57;98581.16;;;9.68;100.00
68226;BME280;55045;49.410;11.030;2022-10-04T17:51:32;98600.09;;;9.94;100.00
68226;BME280;55045;49.410;11.030;2022-10-04T17:55:02;98598.84;;;10.04;100.00
68226;BME280;55045;49.410;11.030;2022-10-04T17:58:21;98598.78;;;9.59;100.00
68226;BME280;55045;49.410;11.030;2022-10-04T18:01:29;98594.88;;;9.72;100.00
68226;BME280;55045;49.410;11.030;2022-10-04T18:04:37;98570.13;;;10.52;100.00
68226;BME280;55045;49.410;11.030;2022-10-04T18:07:55;98582.50;;;10.67;100.00
68226;BME280;55045;49.410;11.030;2022-10-04T18:11:01;98574.06;;;10.19;100.00
68226;BME280;55045;49.410;11.030;2022-10-04T18:14:11;98592.63;;;10.08;100.00
68226;BME280;55045;49.410;11.030;2022-10-04T18:17:28;98584.91;;;10.06;100.00
68226;BME280;55045;49.410;11.030;2022-10-04T18:20:37;98580.84;;;9.99;100.00
68226;BME280;55045;49.410;11.030;2022-10-04T18:23:51;98576.84;;;9.92;100.00
68226;BME280;55045;49.410;11.030;2022-10-04T18:26:58;98575.09;;;9.69;100.00
68226;BME280;55045;49.410;11.030;2022-10-04T18:30:11;98572.00;;;9.83;100.00
68226;BME280;55045;49.410;11.030;2022-10-04T18:33:16;98577.66;;;9.71;100.00
68226;BME280;55045;49.410;11.030;2022-10-04T18:36:28;98565.97;;;9.36;100.00
68226;BME280;55045;49.410;11.030;2022-10-04T18:39:45;98547.72;;;9.15;100.00
68226;BME280;55045;49.410;11.030;2022-10-04T18:42:55;98578.00;;;9.37;100.00
68226;BME280;55045;49.410;11.030;2022-10-04T18:46:00;98557.22;;;9.15;100.00
68226;BME280;55045;49.410;11.030;2022-10-04T18:49:13;98599.59;;;9.12;100.00
68226;BME280;55045;49.410;11.030;2022-10-04T18:52:26;98601.44;;;8.84;100.00
68226;BME280;55045;49.410;11.030;2022-10-04T18:55:40;98605.03;;;8.80;100.00
68226;BME280;55045;49.410;11.030;2022-10-04T18:58:58;98598.31;;;8.74;100.00